Currently 63°F in Murrieta, California, USA
63°F
63°F / 54°F
7 mph S
0.00"
Saturday, May 25, 2024 10:43 AM PDT

Murrieta, California Weather Summary
Last 36 Hours

Temperature Winds Hourly Humidity Dewpoint
Time Report Norm Report Norm Max Gusts Precip. Rpt. Norm Rpt. Norm Pressure
1,2Sat 10:43 AM  62.6°F  69°F  7 mph S  4 mph  13 mph  0.00"  N/A  64%  N/A°F  56°F  30.11"
Sat 10:00 AM  60.5°F  66°F  8 mph S  3 mph  15 mph  0.00"  N/A  70%  N/A°F  56°F  30.11"
Sat 09:00 AM  58.5°F  62°F  5 mph S  2 mph  14 mph  0.00"  N/A  79%  N/A°F  56°F  30.11"
Sat 08:00 AM  56.9°F  59°F  7 mph SW  2 mph  15 mph  0.00"  N/A  87%  N/A°F  55°F  30.10"
Sat 07:00 AM  54.5°F  56°F  3 mph S  1 mph  9 mph  0.00"  N/A  91%  N/A°F  53°F  30.08"
3Sat 06:13 AM  54.0°F  54°F  3 mph S  1 mph  6 mph  ----  N/A  93%  N/A°F  52°F  30.06"
Sat 06:00 AM  54.2°F  54°F  1 mph S  1 mph  13 mph  0.00"  N/A  93%  N/A°F  52°F  30.06"
Sat 05:00 AM  54.5°F  54°F  4 mph SW  1 mph  14 mph  0.00"  N/A  92%  N/A°F  52°F  30.05"
Sat 04:00 AM  54.4°F  55°F  9 mph SW  1 mph  16 mph  0.00"  N/A  92%  N/A°F  52°F  30.04"
Sat 03:00 AM  55.0°F  55°F  9 mph SW  1 mph  16 mph  0.00"  N/A  91%  N/A°F  52°F  30.05"
Sat 02:00 AM  55.0°F  55°F  8 mph SW  2 mph  14 mph  0.00"  N/A  91%  N/A°F  53°F  30.04"
Sat 01:00 AM  55.9°F  56°F  4 mph SW  2 mph  15 mph  0.00"  N/A  90%  N/A°F  53°F  30.06"
Sat 12:00 AM  55.8°F  56°F  7 mph S  2 mph  18 mph  0.00"  N/A  90%  N/A°F  53°F  30.05"
Fri 11:00 PM  56.5°F  57°F  7 mph SW  3 mph  13 mph  0.00"  N/A  89%  N/A°F  54°F  30.05"
Fri 10:00 PM  57.7°F  58°F  4 mph SW  3 mph  12 mph  0.00"  N/A  87%  N/A°F  54°F  30.05"
Fri 09:00 PM  58.3°F  59°F  6 mph SW  4 mph  15 mph  0.00"  N/A  85%  N/A°F  54°F  30.02"
Fri 08:00 PM  59.2°F  61°F  6 mph SW  6 mph  14 mph  0.00"  N/A  80%  N/A°F  55°F  30.00"
Fri 07:00 PM  61.2°F  65°F  8 mph SW  7 mph  21 mph  0.00"  N/A  72%  N/A°F  55°F  29.99"
Fri 06:00 PM  62.3°F  68°F  11 mph S  8 mph  19 mph  0.00"  N/A  65%  N/A°F  55°F  29.98"
Fri 05:00 PM  66.5°F  71°F  8 mph SW  8 mph  14 mph  0.00"  N/A  59%  N/A°F  55°F  30.00"
Fri 04:00 PM  66.7°F  73°F  6 mph S  9 mph  13 mph  0.00"  N/A  55%  N/A°F  56°F  30.01"
Fri 03:00 PM  65.8°F  74°F  4 mph SW  8 mph  12 mph  0.00"  N/A  54%  N/A°F  56°F  30.03"
Fri 02:00 PM  63.9°F  74°F  6 mph S  7 mph  12 mph  0.00"  N/A  54%  N/A°F  56°F  30.05"
Fri 01:00 PM  61.6°F  74°F  5 mph S  6 mph  12 mph  0.00"  N/A  54%  N/A°F  56°F  30.07"
Fri 12:00 PM  60.1°F  72°F  5 mph S  5 mph  10 mph  0.00"  N/A  57%  N/A°F  55°F  30.08"
Fri 11:00 AM  59.5°F  69°F  6 mph S  4 mph  9 mph  0.00"  N/A  62%  N/A°F  56°F  30.07"
Fri 10:00 AM  58.3°F  66°F  2 mph S  3 mph  9 mph  0.00"  N/A  71%  N/A°F  56°F  30.07"
Fri 09:00 AM  57.9°F  62°F  2 mph S  2 mph  11 mph  0.00"  N/A  80%  N/A°F  55°F  30.06"
Fri 08:00 AM  57.3°F  59°F  6 mph S  2 mph  13 mph  0.00"  N/A  87%  N/A°F  55°F  30.05"
Fri 07:00 AM  56.8°F  56°F  6 mph S  1 mph  10 mph  0.00"  N/A  91%  N/A°F  53°F  30.03"
Fri 06:00 AM  56.6°F  54°F  5 mph S  1 mph  10 mph  0.00"  N/A  93%  N/A°F  52°F  30.02"
Fri 05:00 AM  56.4°F  54°F  5 mph SW  1 mph  10 mph  0.00"  N/A  92%  N/A°F  52°F  30.01"
Fri 04:00 AM  56.3°F  55°F  5 mph SW  1 mph  10 mph  0.00"  N/A  92%  N/A°F  52°F  30.01"
Fri 03:00 AM  56.6°F  55°F  5 mph S  1 mph  7 mph  0.00"  N/A  91%  N/A°F  52°F  30.02"
Fri 02:00 AM  56.6°F  55°F  4 mph S  1 mph  6 mph  0.00"  N/A  91%  N/A°F  53°F  30.02"
Fri 01:00 AM  56.8°F  56°F  2 mph S  2 mph  5 mph  0.00"  N/A  90%  N/A°F  53°F  30.03"
Fri 12:00 AM  57.1°F  56°F  3 mph S  2 mph  8 mph  0.00"  N/A  90%  N/A°F  53°F  30.04"
Thu 11:00 PM  57.1°F  57°F  4 mph SW  2 mph  10 mph  0.00"  N/A  89%  N/A°F  54°F  30.05"

  1. Current weather data. No green row appears if the current weather data is also the high or low for the current day.
  2. High temperature for the current day.
  3. Low temperature for the current day.

The Murrieta weather pages are a service of WeatherCurrents. Murrieta, California is located in the Temecula Valley, in southwestern Riverside County, at the junctions of the Interstate 15 and 215 highways.
Copyright ©2024  WeatherCurrents. All rights reserved. - Submit questions and comments - Privacy Policy

This page automatically refreshes every 10 minutes.